createdAt,value
2023-01-07T00:01:11.806Z,11.78
2023-01-07T00:06:43.719Z,11.74
2023-01-07T00:12:15.433Z,11.6
2023-01-07T00:17:46.955Z,11.72
2023-01-07T00:23:18.840Z,11.83
2023-01-07T00:28:56.774Z,11.81
2023-01-07T00:34:28.479Z,11.8
2023-01-07T00:40:00.378Z,11.81
2023-01-07T00:45:31.987Z,11.82
2023-01-07T00:51:03.677Z,11.77
2023-01-07T00:56:35.343Z,11.73
2023-01-07T01:02:07.176Z,11.73
2023-01-07T01:07:38.779Z,11.69
2023-01-07T01:13:10.582Z,11.69
2023-01-07T01:18:42.290Z,11.67
2023-01-07T01:24:14.113Z,11.64
2023-01-07T01:29:50.245Z,11.65
2023-01-07T01:35:21.805Z,11.62
2023-01-07T01:40:53.699Z,11.62
2023-01-07T01:46:25.270Z,11.59
2023-01-07T01:51:56.952Z,11.57
2023-01-07T01:57:28.877Z,11.47
2023-01-07T02:03:00.676Z,11.46
2023-01-07T02:08:32.357Z,11.16
2023-01-07T02:14:03.956Z,11.39
2023-01-07T02:19:35.758Z,11.24
2023-01-07T02:25:07.525Z,11.24
2023-01-07T02:30:43.707Z,11.44
2023-01-07T02:36:15.189Z,11.49
2023-01-07T02:41:47.272Z,11.34
2023-01-07T02:47:18.842Z,11.29
2023-01-07T02:52:51.600Z,11.28
2023-01-07T02:58:22.071Z,11.31
2023-01-07T03:03:53.801Z,11.44
2023-01-07T03:09:25.670Z,11.41
2023-01-07T03:14:57.413Z,11.18
2023-01-07T03:20:28.978Z,10.99
2023-01-07T03:26:00.839Z,11.26
2023-01-07T03:31:36.846Z,11.2
2023-01-07T03:37:08.518Z,11.31
2023-01-07T03:42:40.443Z,11.37
2023-01-07T03:48:11.969Z,11.12
2023-01-07T03:53:44.072Z,11.18
2023-01-07T03:59:15.571Z,10.9
2023-01-07T04:04:47.282Z,11.04
2023-01-07T04:10:19.002Z,11.01
2023-01-07T04:15:50.762Z,11.19
2023-01-07T04:21:22.283Z,11.28
2023-01-07T04:26:54.566Z,11.12
2023-01-07T04:32:30.138Z,10.93
2023-01-07T04:38:01.873Z,11.09
2023-01-07T04:43:33.763Z,11.1
2023-01-07T04:49:05.478Z,10.87
2023-01-07T04:54:37.044Z,11.14
2023-01-07T05:00:09.109Z,11.25
2023-01-07T05:05:40.699Z,10.94
2023-01-07T05:11:12.424Z,11.16
2023-01-07T05:16:44.876Z,11.26
2023-01-07T05:22:15.708Z,11.15
2023-01-07T05:27:47.400Z,11.27
2023-01-07T05:33:23.770Z,11.22
2023-01-07T05:38:55.206Z,11.12
2023-01-07T05:44:26.901Z,10.95
2023-01-07T05:49:58.893Z,10.93
2023-01-07T05:55:30.595Z,10.97
2023-01-07T06:01:02.117Z,10.87
2023-01-07T06:06:33.771Z,10.95
2023-01-07T06:12:05.723Z,10.79
2023-01-07T06:17:37.502Z,10.92
2023-01-07T06:23:09.027Z,11.0
2023-01-07T06:28:40.695Z,10.78
2023-01-07T06:34:18.855Z,10.68
2023-01-07T06:39:50.562Z,10.59
2023-01-07T06:45:22.311Z,10.49
2023-01-07T06:50:54.118Z,10.5
2023-01-07T06:56:25.739Z,10.5
2023-01-07T07:01:57.538Z,10.5
2023-01-07T07:07:29.206Z,10.32
2023-01-07T07:13:00.863Z,10.25
2023-01-07T07:18:33.045Z,10.03
2023-01-07T07:24:04.801Z,9.83
2023-01-07T07:29:36.272Z,10.01
2023-01-07T07:35:12.928Z,9.99
2023-01-07T07:40:43.957Z,9.86
2023-01-07T07:46:15.993Z,9.91
2023-01-07T07:51:47.449Z,10.02
2023-01-07T07:57:19.153Z,10.11
2023-01-07T08:02:51.078Z,10.23
2023-01-07T08:08:22.824Z,10.47
2023-01-07T08:13:54.673Z,10.23
2023-01-07T08:19:26.070Z,10.44
2023-01-07T08:24:57.749Z,10.48
2023-01-07T08:30:29.673Z,10.35
2023-01-07T08:36:09.262Z,10.44
2023-01-07T08:41:37.428Z,10.6
2023-01-07T08:47:09.030Z,10.26
2023-01-07T08:52:40.738Z,10.31
2023-01-07T08:58:12.653Z,10.13
2023-01-07T09:03:44.190Z,10.47
2023-01-07T09:09:16.040Z,10.62
2023-01-07T09:14:47.844Z,10.65
2023-01-07T09:20:19.358Z,10.46
2023-01-07T09:25:51.252Z,10.5
2023-01-07T09:31:24.133Z,10.84
2023-01-07T09:37:00.955Z,10.81
2023-01-07T09:42:33.945Z,10.64
2023-01-07T09:48:04.604Z,10.67
2023-01-07T09:53:36.185Z,10.74
2023-01-07T09:59:07.931Z,10.94
2023-01-07T10:04:39.787Z,10.88
2023-01-07T10:10:11.785Z,10.76
2023-01-07T10:15:43.065Z,10.53
2023-01-07T10:21:14.798Z,10.72
2023-01-07T10:26:46.858Z,10.49
2023-01-07T10:32:18.423Z,10.46
2023-01-07T10:37:56.632Z,10.48
2023-01-07T10:43:28.222Z,10.74
2023-01-07T10:48:59.792Z,11.14
2023-01-07T10:54:31.510Z,11.13
2023-01-07T11:00:03.284Z,11.22
2023-01-07T11:05:35.469Z,11.18
2023-01-07T11:11:06.731Z,11.4
2023-01-07T11:16:39.072Z,11.74
2023-01-07T11:22:10.233Z,11.6
2023-01-07T11:27:41.995Z,11.81
2023-01-07T11:33:13.651Z,12.11
2023-01-07T11:38:49.738Z,12.08
2023-01-07T11:44:21.574Z,12.54
2023-01-07T11:49:53.359Z,12.79
2023-01-07T11:55:24.912Z,13.47
2023-01-07T12:00:56.652Z,13.95
2023-01-07T12:06:28.389Z,13.18
2023-01-07T12:12:00.110Z,13.86
2023-01-07T12:17:31.883Z,14.32
2023-01-07T12:23:03.669Z,14.02
2023-01-07T12:28:35.412Z,14.25
2023-01-07T12:34:07.023Z,14.01
2023-01-07T12:39:43.141Z,13.54
2023-01-07T12:45:14.973Z,13.44
2023-01-07T12:50:46.646Z,13.48
2023-01-07T12:56:18.495Z,13.33
2023-01-07T13:01:50.275Z,13.27
2023-01-07T13:07:21.784Z,13.35
2023-01-07T13:12:53.536Z,13.12
2023-01-07T13:18:25.306Z,12.73
2023-01-07T13:23:56.950Z,12.99
2023-01-07T13:29:28.665Z,13.06
2023-01-07T13:35:00.371Z,12.94
2023-01-07T13:40:38.521Z,12.89
2023-01-07T13:46:10.352Z,13.0
2023-01-07T13:51:42.084Z,12.88
2023-01-07T13:57:13.795Z,13.16
2023-01-07T14:02:45.534Z,12.87
2023-01-07T14:08:17.347Z,12.89
2023-01-07T14:13:48.891Z,13.01
2023-01-07T14:19:20.622Z,12.9
2023-01-07T14:24:52.859Z,12.76
2023-01-07T14:30:24.084Z,12.83
2023-01-07T14:35:55.826Z,12.51
2023-01-07T14:41:31.942Z,12.32
2023-01-07T14:47:03.670Z,12.76
2023-01-07T14:52:35.626Z,12.43
2023-01-07T14:58:07.130Z,12.26
2023-01-07T15:03:38.932Z,12.36
2023-01-07T15:09:10.600Z,12.21
2023-01-07T15:14:42.281Z,12.38
2023-01-07T15:20:14.104Z,11.96
2023-01-07T15:25:46.564Z,12.05
2023-01-07T15:31:17.529Z,11.84
2023-01-07T15:36:49.233Z,11.59
2023-01-07T15:42:25.462Z,11.58
2023-01-07T15:47:56.990Z,11.77
2023-01-07T15:53:28.900Z,12.05
2023-01-07T15:59:00.672Z,11.91
2023-01-07T16:04:32.991Z,11.64
2023-01-07T16:10:04.145Z,11.34
2023-01-07T16:15:35.701Z,11.33
2023-01-07T16:21:07.408Z,11.19
2023-01-07T16:26:39.262Z,11.33
2023-01-07T16:32:10.835Z,11.43
2023-01-07T16:37:42.624Z,11.41
2023-01-07T16:43:18.699Z,11.07
2023-01-07T16:48:50.489Z,10.97
2023-01-07T16:54:22.211Z,11.04
2023-01-07T16:59:54.139Z,10.84
2023-01-07T17:05:25.788Z,10.83
2023-01-07T17:10:57.407Z,10.86
2023-01-07T17:16:29.348Z,10.99
2023-01-07T17:22:00.941Z,11.08
2023-01-07T17:27:32.960Z,10.7
2023-01-07T17:33:04.577Z,10.53
2023-01-07T17:38:36.318Z,10.4
2023-01-07T17:44:14.388Z,10.33
2023-01-07T17:49:46.081Z,10.05
2023-01-07T17:55:17.784Z,10.12
2023-01-07T18:00:49.647Z,9.96
2023-01-07T18:06:21.328Z,10.0
2023-01-07T18:11:52.979Z,9.88
2023-01-07T18:17:24.841Z,9.99
2023-01-07T18:22:56.925Z,9.89
2023-01-07T18:28:28.326Z,9.93
2023-01-07T18:33:59.921Z,9.89
2023-01-07T18:39:31.883Z,9.81
2023-01-07T18:45:09.977Z,9.89
2023-01-07T18:50:41.495Z,9.62
2023-01-07T18:56:13.247Z,9.53
2023-01-07T19:01:45.053Z,9.5
2023-01-07T19:07:16.957Z,9.52
2023-01-07T19:12:48.700Z,9.47
2023-01-07T19:18:20.601Z,9.56
2023-01-07T19:23:52.251Z,9.43
2023-01-07T19:29:23.835Z,9.43
2023-01-07T19:34:55.541Z,9.46
2023-01-07T19:40:27.270Z,9.51
2023-01-07T19:46:05.648Z,9.45
2023-01-07T19:51:37.193Z,9.47
2023-01-07T19:57:09.089Z,9.5
2023-01-07T20:02:40.858Z,9.46
2023-01-07T20:08:12.353Z,9.48
2023-01-07T20:13:44.076Z,9.51
2023-01-07T20:19:15.976Z,9.45
2023-01-07T20:24:47.509Z,9.56
2023-01-07T20:30:19.265Z,9.53
2023-01-07T20:35:50.973Z,9.66
2023-01-07T20:41:22.657Z,9.74
2023-01-07T20:46:58.954Z,9.73
2023-01-07T20:52:30.737Z,9.62
2023-01-07T20:58:02.393Z,9.38
2023-01-07T21:03:34.117Z,9.34
2023-01-07T21:09:05.906Z,9.22
2023-01-07T21:14:37.595Z,9.09
2023-01-07T21:20:09.443Z,9.31
2023-01-07T21:25:41.389Z,9.18
2023-01-07T21:31:12.785Z,9.21
2023-01-07T21:36:44.496Z,9.16
2023-01-07T21:42:16.943Z,9.14
2023-01-07T21:47:52.451Z,9.31
2023-01-07T21:53:24.027Z,9.34
2023-01-07T21:58:55.743Z,9.17
2023-01-07T22:04:27.553Z,9.23
2023-01-07T22:09:59.216Z,9.47
2023-01-07T22:15:30.945Z,9.47
2023-01-07T22:21:02.749Z,9.48
2023-01-07T22:26:34.384Z,9.62
2023-01-07T22:32:06.275Z,9.45
2023-01-07T22:37:37.852Z,9.31
2023-01-07T22:43:09.919Z,9.46
2023-01-07T22:48:47.916Z,9.43
2023-01-07T22:54:19.435Z,9.47
2023-01-07T22:59:51.148Z,9.59
2023-01-07T23:05:22.844Z,9.22
2023-01-07T23:10:54.569Z,9.1
2023-01-07T23:16:26.644Z,9.05
2023-01-07T23:21:58.043Z,8.97
2023-01-07T23:27:30.168Z,9.16
2023-01-07T23:33:01.463Z,9.1
2023-01-07T23:38:33.137Z,9.09
2023-01-07T23:44:04.926Z,9.05
2023-01-07T23:49:41.001Z,9.14
2023-01-07T23:55:12.889Z,9.25
